Time;durP1;ratioP1;P1;durP2;ratioP2;P2;SDS_P1;SDS_P2;PMS_P1;PMS_P2;Temp;Humidity;BMP_temperature;BMP_pressure;BME280_temperature;BME280_humidity;BME280_pressure;Samples;Min_cycle;Max_cycle;Signal;HPM_P1;HPM_P2
2022/10/06 00:03:54;;;;;;;8.48;2.60;;;;;;;15.64;62.40;100456.31;10389767;28;20057;-66
2022/10/06 00:08:55;;;;;;;10.00;3.03;;;;;;;15.70;62.35;100462.91;10389045;28;20553;-66
2022/10/06 00:13:57;;;;;;;7.57;2.80;;;;;;;15.70;62.47;100476.94;10386558;28;20049;-66
2022/10/06 00:18:58;;;;;;;9.68;2.70;;;;;;;15.76;62.54;100481.78;10389022;28;20407;-66
2022/10/06 00:24:01;;;;;;;10.35;2.92;;;;;;;15.77;62.58;100488.75;10388661;28;20060;-67
2022/10/06 00:29:02;;;;;;;12.98;3.10;;;;;;;15.74;62.70;100499.50;10388713;28;20053;-66
2022/10/06 00:34:04;;;;;;;7.57;2.55;;;;;;;15.76;62.45;100538.94;10386959;28;20453;-66
2022/10/06 00:39:05;;;;;;;6.55;1.80;;;;;;;15.65;62.00;100541.53;10388501;28;20683;-66
2022/10/06 00:44:07;;;;;;;6.72;1.90;;;;;;;15.57;61.59;100560.50;10383803;28;20057;-66
2022/10/06 00:49:21;;;;;;;5.40;1.40;;;;;;;15.51;61.26;100562.75;10387735;28;20064;-65
2022/10/06 00:54:24;;;;;;;5.45;1.50;;;;;;;15.48;61.07;100590.13;10388270;28;20052;-65
2022/10/06 00:59:25;;;;;;;4.20;1.30;;;;;;;15.41;60.16;100610.78;10387367;28;20057;-66
2022/10/06 01:04:31;;;;;;;5.15;1.55;;;;;;;15.43;60.12;100613.31;10386779;28;20061;-66
2022/10/06 01:09:33;;;;;;;3.85;1.30;;;;;;;15.39;60.41;100622.38;10387460;28;20591;-66
2022/10/06 01:14:38;;;;;;;4.43;1.27;;;;;;;15.20;60.74;100629.88;10385765;28;20053;-66
2022/10/06 01:20:02;;;;;;;3.95;1.30;;;;;;;14.99;60.89;100633.94;10386742;28;20445;-66
2022/10/06 01:25:06;;;;;;;3.03;1.05;;;;;;;15.02;61.35;100642.47;10386376;28;20049;-65
2022/10/06 01:30:13;;;;;;;2.30;1.10;;;;;;;14.99;61.14;100655.00;10386586;28;20063;-65
2022/10/06 01:35:14;;;;;;;2.22;1.00;;;;;;;14.92;61.89;100664.28;10385892;28;20560;-65
2022/10/06 01:40:16;;;;;;;3.53;1.25;;;;;;;14.71;62.54;100663.06;10385068;28;20058;-65
2022/10/06 01:45:18;;;;;;;4.25;1.20;;;;;;;14.59;62.95;100677.88;10385937;28;20061;-66
2022/10/06 01:50:19;;;;;;;3.80;1.00;;;;;;;14.53;62.73;100691.41;10386116;28;20049;-66
2022/10/06 01:55:21;;;;;;;5.18;1.25;;;;;;;14.53;62.68;100700.13;10385411;28;20432;-65
2022/10/06 02:00:23;;;;;;;6.60;1.60;;;;;;;14.39;63.23;100709.84;10384818;28;20449;-66
2022/10/06 02:05:24;;;;;;;3.40;1.17;;;;;;;14.30;63.71;100713.91;10392960;28;20394;-65
2022/10/06 02:10:26;;;;;;;4.55;1.27;;;;;;;14.29;63.60;100701.66;10390099;28;20046;-66
2022/10/06 02:15:31;;;;;;;3.80;1.20;;;;;;;14.36;63.10;100710.88;10392502;28;20413;-65
2022/10/06 02:20:33;;;;;;;3.40;1.30;;;;;;;14.35;63.41;100727.59;10393286;28;20046;-66
2022/10/06 02:25:35;;;;;;;6.05;1.27;;;;;;;14.30;63.37;100713.03;10392390;28;20061;-65
2022/10/06 02:30:36;;;;;;;4.72;1.10;;;;;;;14.37;63.34;100719.63;10392731;28;20064;-66
2022/10/06 02:35:38;;;;;;;4.25;1.27;;;;;;;14.39;63.26;100728.25;10392483;28;20049;-66
2022/10/06 02:40:40;;;;;;;3.47;1.00;;;;;;;14.39;63.31;100734.34;10391496;28;20057;-66
2022/10/06 02:45:42;;;;;;;3.67;1.17;;;;;;;14.46;63.25;100740.09;10397806;28;20060;-65
2022/10/06 02:50:44;;;;;;;3.25;1.00;;;;;;;14.35;63.36;100753.09;10400420;28;20045;-65
2022/10/06 02:55:45;;;;;;;2.28;0.93;;;;;;;14.30;63.76;100761.25;10399778;28;20485;-65
2022/10/06 03:00:47;;;;;;;6.93;1.40;;;;;;;14.35;63.39;100769.69;10399275;28;20054;-65
2022/10/06 03:05:49;;;;;;;8.13;1.27;;;;;;;14.39;63.45;100770.38;10394390;28;20049;-66
2022/10/06 03:10:50;;;;;;;4.78;1.48;;;;;;;14.35;63.71;100789.94;10390697;28;20045;-64
2022/10/06 03:15:52;;;;;;;3.92;1.17;;;;;;;14.38;63.23;100787.09;10392614;28;20145;-66
2022/10/06 03:20:59;;;;;;;5.05;1.15;;;;;;;14.34;63.64;100788.22;10392686;28;20086;-65
2022/10/06 03:26:00;;;;;;;7.53;1.35;;;;;;;14.35;63.16;100801.28;10392241;28;20494;-65
2022/10/06 03:31:04;;;;;;;4.43;1.10;;;;;;;14.24;63.50;100808.13;10390885;28;20053;-65
2022/10/06 03:36:11;;;;;;;5.55;1.13;;;;;;;14.09;63.71;100804.66;10391367;28;20140;-65
2022/10/06 03:41:16;;;;;;;5.10;1.33;;;;;;;13.93;63.88;100817.03;10390268;28;20053;-66
2022/10/06 03:46:20;;;;;;;6.03;1.35;;;;;;;13.72;64.26;100841.94;10391977;28;20061;-65
2022/10/06 03:51:23;;;;;;;7.07;1.10;;;;;;;13.48;64.30;100846.00;10379673;28;20450;-65
2022/10/06 03:56:26;;;;;;;3.83;1.30;;;;;;;13.29;65.10;100853.22;10390419;28;20045;-66
2022/10/06 04:01:34;;;;;;;8.30;1.40;;;;;;;13.08;65.43;100863.13;10390171;28;20054;-66
2022/10/06 04:06:39;;;;;;;4.07;1.20;;;;;;;12.91;65.84;100864.06;10384940;28;20065;-66
2022/10/06 04:11:41;;;;;;;5.63;1.45;;;;;;;12.79;66.21;100882.25;10387661;28;20468;-66
2022/10/06 04:16:48;;;;;;;7.63;1.38;;;;;;;12.74;65.99;100889.53;10388372;28;20414;-66
2022/10/06 04:21:50;;;;;;;6.05;1.50;;;;;;;12.69;65.57;100904.66;10377687;28;20574;-66
2022/10/06 04:26:52;;;;;;;7.03;1.40;;;;;;;12.64;65.29;100925.06;10388042;28;20516;-66
2022/10/06 04:31:53;;;;;;;7.82;1.50;;;;;;;12.61;64.90;100930.47;10385539;28;20049;-66
2022/10/06 04:36:55;;;;;;;5.80;1.30;;;;;;;12.50;64.75;100938.88;10388012;28;20150;-67
2022/10/06 04:41:57;;;;;;;7.35;1.65;;;;;;;12.41;64.30;100949.00;10387527;28;20053;-67
2022/10/06 04:47:00;;;;;;;7.18;1.60;;;;;;;12.36;64.03;100962.34;10387974;28;20057;-66
2022/10/06 04:52:01;;;;;;;7.30;1.88;;;;;;;12.31;63.37;100967.00;10385549;28;20060;-66
2022/10/06 04:57:04;;;;;;;8.27;2.38;;;;;;;12.19;63.05;100974.59;10385648;28;20060;-67
2022/10/06 05:02:06;;;;;;;9.68;1.98;;;;;;;12.11;63.08;100990.69;10386098;28;20053;-66
2022/10/06 05:07:08;;;;;;;10.20;1.80;;;;;;;12.01;63.42;101000.78;10386510;28;20624;-66
2022/10/06 05:12:10;;;;;;;7.72;1.70;;;;;;;11.96;63.52;101007.19;10386709;28;20076;-66
2022/10/06 05:17:11;;;;;;;9.60;2.03;;;;;;;11.84;63.50;101020.88;10386721;28;20057;-66
2022/10/06 05:22:13;;;;;;;9.13;1.80;;;;;;;11.68;64.09;101027.78;10384342;28;20055;-66
2022/10/06 05:27:15;;;;;;;6.63;1.92;;;;;;;11.58;64.58;101037.81;10386782;28;20405;-66
2022/10/06 05:32:16;;;;;;;8.05;1.90;;;;;;;11.51;65.23;101035.56;10386083;28;20429;-66
2022/10/06 05:37:18;;;;;;;7.85;1.70;;;;;;;11.47;65.07;101039.25;10384601;28;20045;-66
2022/10/06 05:42:20;;;;;;;8.10;1.75;;;;;;;11.42;65.34;101055.16;10382566;28;20049;-66
2022/10/06 05:47:24;;;;;;;7.65;1.80;;;;;;;11.43;65.29;101063.88;10385764;28;20468;-66
2022/10/06 05:52:26;;;;;;;11.02;1.73;;;;;;;11.35;65.42;101066.00;10383746;28;20045;-66
2022/10/06 05:57:27;;;;;;;8.63;1.90;;;;;;;11.34;65.02;101090.50;10384295;28;20052;-66
2022/10/06 06:02:29;;;;;;;10.98;1.95;;;;;;;11.36;65.22;101099.97;10385073;28;20818;-67
2022/10/06 06:07:31;;;;;;;9.38;1.90;;;;;;;11.32;65.81;101113.28;10384787;28;20048;-66
2022/10/06 06:12:32;;;;;;;8.85;1.70;;;;;;;11.36;66.04;101117.47;10385018;28;20493;-66
2022/10/06 06:17:34;;;;;;;10.93;1.88;;;;;;;11.35;65.96;101116.63;10387757;28;20064;-67
2022/10/06 06:22:35;;;;;;;10.15;1.98;;;;;;;11.31;65.83;101122.91;10391121;28;20061;-67
2022/10/06 06:27:40;;;;;;;8.82;1.70;;;;;;;11.20;65.88;101140.84;10394326;28;20064;-67
2022/10/06 06:32:42;;;;;;;11.73;2.22;;;;;;;11.31;64.88;101151.72;10394284;28;20057;-67
2022/10/06 06:37:45;;;;;;;8.18;2.10;;;;;;;11.47;63.66;101149.25;10393429;28;20057;-67
2022/10/06 06:42:46;;;;;;;7.03;2.00;;;;;;;11.62;63.28;101164.31;10392457;28;20057;-66
2022/10/06 06:47:54;;;;;;;11.63;1.98;;;;;;;11.73;63.32;101172.53;10393479;28;20057;-67
2022/10/06 06:52:55;;;;;;;10.35;2.60;;;;;;;11.81;62.52;101176.53;10390315;28;20057;-67
2022/10/06 06:57:57;;;;;;;7.90;1.70;;;;;;;11.92;62.48;101189.16;10392244;28;20485;-66
2022/10/06 07:02:59;;;;;;;10.93;1.95;;;;;;;12.05;61.63;101193.75;10391564;28;20057;-66
2022/10/06 07:08:01;;;;;;;10.98;2.88;;;;;;;12.07;60.99;101202.41;10390515;28;20626;-66
2022/10/06 07:13:03;;;;;;;11.10;2.70;;;;;;;12.23;60.68;101193.84;10392273;28;20084;-71
2022/10/06 07:28:47;;;;;;;12.23;2.30;;;;;;;12.78;59.38;101214.78;10390474;28;20049;-72
2022/10/06 07:33:50;;;;;;;10.75;2.42;;;;;;;13.00;58.43;101227.72;10389177;28;20060;-71
2022/10/06 07:38:51;;;;;;;13.98;2.70;;;;;;;13.40;57.26;101229.19;10390584;28;20517;-72
2022/10/06 07:43:53;;;;;;;11.82;2.97;;;;;;;14.01;55.68;101229.50;10389460;28;20963;-71
2022/10/06 07:48:55;;;;;;;16.58;2.70;;;;;;;14.65;53.68;101242.69;10387981;28;20041;-72
2022/10/06 07:53:56;;;;;;;15.32;2.88;;;;;;;15.23;52.04;101244.53;10388553;28;20781;-72
2022/10/06 07:58:58;;;;;;;13.75;2.88;;;;;;;15.87;50.83;101243.38;10389001;28;20504;-72
2022/10/06 08:04:01;;;;;;;11.48;2.42;;;;;;;16.31;49.71;101243.25;10385743;28;20057;-73
2022/10/06 08:09:04;;;;;;;14.23;2.67;;;;;;;16.37;48.59;101250.78;10389287;28;20071;-73
2022/10/06 08:14:06;;;;;;;13.30;2.78;;;;;;;16.30;48.44;101257.41;10389289;28;20056;-72
2022/10/06 08:19:08;;;;;;;14.52;3.00;;;;;;;16.21;48.12;101266.75;10389649;28;20421;-73
2022/10/06 08:24:09;;;;;;;18.13;2.90;;;;;;;16.34;48.17;101275.63;10388442;28;20402;-72
2022/10/06 08:29:11;;;;;;;17.10;2.85;;;;;;;16.47;47.60;101286.31;10389331;28;20053;-72
2022/10/06 08:34:12;;;;;;;17.58;3.08;;;;;;;16.32;47.27;101281.94;10389177;28;20050;-73
2022/10/06 08:39:14;;;;;;;17.20;3.45;;;;;;;16.10;47.36;101291.16;10385083;28;20054;-72
2022/10/06 08:44:55;;;;;;;12.68;3.05;;;;;;;16.11;47.00;101303.44;10383402;28;20049;-72
2022/10/06 08:49:57;;;;;;;9.65;2.47;;;;;;;16.23;47.69;101313.22;10361613;28;20093;-73
2022/10/06 08:55:23;;;;;;;14.30;2.80;;;;;;;16.26;46.34;101321.91;10387958;28;20130;-73
2022/10/06 09:00:28;;;;;;;12.98;3.03;;;;;;;16.18;46.88;101322.38;10387909;28;20061;-72
2022/10/06 09:05:33;;;;;;;13.30;2.70;;;;;;;16.10;46.82;101324.66;10388722;28;20053;-72
2022/10/06 09:10:55;;;;;;;15.93;3.20;;;;;;;16.10;46.44;101332.56;10387320;28;20485;-73
2022/10/06 09:16:06;;;;;;;16.75;2.72;;;;;;;15.91;45.90;101338.09;10386951;28;20046;-73
2022/10/06 09:21:31;;;;;;;15.45;3.08;;;;;;;16.04;45.98;101340.84;10387729;28;20050;-72
2022/10/06 09:26:33;;;;;;;13.80;2.63;;;;;;;16.16;46.23;101338.28;10386299;28;20053;-73
2022/10/06 09:31:46;;;;;;;14.48;2.97;;;;;;;16.10;46.11;101345.75;10387085;28;20056;-73
2022/10/06 09:36:59;;;;;;;11.10;2.70;;;;;;;16.22;46.27;101348.47;10387602;28;20100;-72
2022/10/06 09:42:08;;;;;;;12.70;2.83;;;;;;;16.44;44.87;101341.94;10387073;28;20049;-71
2022/10/06 09:47:31;;;;;;;18.77;3.53;;;;;;;16.49;44.64;101345.97;10385726;28;20060;-72
2022/10/06 09:52:32;;;;;;;16.88;2.58;;;;;;;16.88;44.59;101351.41;10385315;28;20056;-72
2022/10/06 09:57:36;;;;;;;14.32;2.72;;;;;;;16.73;44.54;101355.00;10386438;28;20769;-72
2022/10/06 10:02:39;;;;;;;14.18;3.45;;;;;;;16.46;45.07;101350.59;10385544;28;20053;-72
2022/10/06 10:07:42;;;;;;;11.73;2.33;;;;;;;16.87;43.83;101354.16;10386006;28;20049;-73
2022/10/06 10:12:56;;;;;;;13.35;2.55;;;;;;;17.06;41.44;101357.31;10386170;28;20052;-72
2022/10/06 10:18:00;;;;;;;16.58;2.55;;;;;;;16.89;43.95;101350.47;10386613;28;20053;-73
2022/10/06 10:23:15;;;;;;;13.75;2.80;;;;;;;16.77;43.80;101358.34;10385920;28;20049;-73
2022/10/06 10:28:29;;;;;;;14.80;3.13;;;;;;;17.08;42.91;101350.13;10383346;28;20053;-72
2022/10/06 10:33:44;;;;;;;13.25;2.72;;;;;;;17.21;42.38;101355.47;10386171;28;20136;-73
2022/10/06 10:39:12;;;;;;;14.20;2.45;;;;;;;17.17;43.01;101349.53;10385945;28;20080;-73
2022/10/06 10:44:28;;;;;;;10.63;2.50;;;;;;;17.11;42.35;101349.94;10371709;28;20053;-73
2022/10/06 10:49:32;;;;;;;12.40;2.50;;;;;;;17.11;43.24;101347.31;10385738;28;20057;-73
2022/10/06 10:54:43;;;;;;;12.65;3.03;;;;;;;17.06;42.77;101335.34;10384945;28;20053;-73
2022/10/06 10:59:54;;;;;;;10.13;2.80;;;;;;;17.07;42.43;101335.22;10380729;28;20041;-73
2022/10/06 11:05:26;;;;;;;11.85;2.55;;;;;;;16.92;43.70;101338.84;10380337;28;21236;-74
2022/10/06 11:10:35;;;;;;;16.40;2.80;;;;;;;17.04;43.64;101338.06;10380166;28;20140;-73
2022/10/06 11:15:36;;;;;;;12.43;2.38;;;;;;;16.89;43.02;101333.78;10389572;28;20057;-73
2022/10/06 11:20:49;;;;;;;9.85;2.38;;;;;;;16.95;43.18;101334.22;10389641;28;20065;-73
2022/10/06 11:26:03;;;;;;;10.02;2.40;;;;;;;16.96;42.28;101335.91;10389979;28;20053;-73
2022/10/06 11:31:10;;;;;;;10.40;2.20;;;;;;;16.99;41.80;101333.09;10390281;28;20076;-73
2022/10/06 11:36:18;;;;;;;9.32;2.25;;;;;;;17.08;42.56;101334.25;10389484;28;20056;-73
2022/10/06 11:41:32;;;;;;;11.73;2.47;;;;;;;17.18;41.78;101326.59;10388113;28;20060;-73
2022/10/06 11:46:44;;;;;;;9.00;2.30;;;;;;;17.22;41.08;101325.47;10388091;28;20647;-73
2022/10/06 11:51:45;;;;;;;9.25;2.50;;;;;;;17.23;40.67;101322.72;10389131;28;20049;-73
2022/10/06 11:56:47;;;;;;;12.10;2.35;;;;;;;17.19;40.90;101315.94;10388971;28;20490;-73
2022/10/06 12:01:50;;;;;;;8.70;2.08;;;;;;;17.26;40.13;101321.66;10388077;28;21162;-74
2022/10/06 12:06:55;;;;;;;10.18;2.25;;;;;;;17.34;40.45;101308.81;10387781;28;20083;-74
2022/10/06 12:11:57;;;;;;;8.40;1.85;;;;;;;17.48;39.80;101312.25;10389527;28;20720;-74
2022/10/06 12:17:11;;;;;;;7.70;1.90;;;;;;;17.53;39.59;101304.84;10387692;28;20065;-74
2022/10/06 12:22:37;;;;;;;8.90;1.98;;;;;;;17.60;39.64;101292.91;10388510;28;20139;-73
2022/10/06 12:27:45;;;;;;;8.18;2.00;;;;;;;17.72;39.15;101292.09;10388423;28;20425;-73
2022/10/06 12:32:56;;;;;;;7.40;1.77;;;;;;;17.70;38.48;101286.03;10388140;28;20045;-73
2022/10/06 12:38:03;;;;;;;9.32;2.10;;;;;;;17.90;38.14;101286.47;10388323;28;20060;-74
2022/10/06 12:43:13;;;;;;;9.70;1.90;;;;;;;17.94;36.33;101282.66;10382884;28;20045;-73
2022/10/06 12:48:27;;;;;;;6.03;1.80;;;;;;;17.99;36.89;101283.19;10375768;28;20526;-73
2022/10/06 12:53:37;;;;;;;8.27;1.80;;;;;;;17.91;37.02;101274.94;10381184;28;20160;-75
2022/10/06 12:58:39;;;;;;;7.50;1.75;;;;;;;18.03;37.06;101276.75;10382033;28;20056;-74
2022/10/06 13:03:47;;;;;;;6.57;1.80;;;;;;;17.95;35.46;101271.13;10376388;28;20491;-74
2022/10/06 13:09:12;;;;;;;6.55;1.73;;;;;;;18.02;36.45;101275.88;10362433;28;20042;-74
2022/10/06 13:14:15;;;;;;;8.38;1.90;;;;;;;18.13;36.06;101278.66;10379134;28;20400;-75
2022/10/06 13:19:25;;;;;;;6.10;1.60;;;;;;;18.10;35.88;101268.25;10379240;28;20525;-74
2022/10/06 13:24:27;;;;;;;8.05;2.10;;;;;;;18.15;37.59;101270.59;10379072;28;20801;-74
2022/10/06 13:29:30;;;;;;;7.05;1.73;;;;;;;18.17;36.68;101264.22;10377279;28;20062;-75
2022/10/06 13:34:41;;;;;;;6.43;1.67;;;;;;;18.27;36.42;101259.16;10383157;28;20090;-74
2022/10/06 13:39:43;;;;;;;6.18;1.80;;;;;;;18.35;35.55;101259.47;10375066;28;20045;-74
2022/10/06 13:44:59;;;;;;;4.68;1.60;;;;;;;18.21;34.54;101259.59;10379729;28;20390;-74
2022/10/06 13:50:05;;;;;;;5.32;1.52;;;;;;;18.21;35.42;101260.44;10382529;28;20049;-74
2022/10/06 13:55:28;;;;;;;7.55;2.08;;;;;;;18.28;35.81;101255.56;10377757;28;20320;-75
2022/10/06 14:00:54;;;;;;;6.22;1.50;;;;;;;18.27;34.58;101259.16;10370223;28;20098;-74
2022/10/06 14:06:07;;;;;;;8.65;1.60;;;;;;;18.27;35.65;101251.22;10366435;28;20057;-74
2022/10/06 14:11:09;;;;;;;7.88;1.60;;;;;;;18.35;35.10;101246.22;10382378;28;20054;-74
2022/10/06 14:16:19;;;;;;;7.70;1.60;;;;;;;18.33;35.15;101242.84;10373639;28;20053;-74
2022/10/06 14:21:44;;;;;;;7.60;1.75;;;;;;;18.28;36.35;101244.97;10379590;28;20513;-74
2022/10/06 14:26:54;;;;;;;8.93;1.98;;;;;;;18.53;36.51;101242.25;10374470;28;20056;-74
2022/10/06 14:32:07;;;;;;;7.22;1.73;;;;;;;18.45;35.27;101237.50;10382663;28;20042;-74
2022/10/06 14:37:13;;;;;;;8.15;2.00;;;;;;;18.55;35.89;101237.69;10407121;28;20045;-75
2022/10/06 14:42:16;;;;;;;8.88;1.92;;;;;;;18.47;35.70;101235.59;10388244;28;20107;-73
2022/10/06 14:47:18;;;;;;;5.90;1.42;;;;;;;18.45;34.81;101232.22;10383121;28;20053;-73
2022/10/06 14:52:21;;;;;;;7.47;1.85;;;;;;;18.34;35.63;101239.25;10388989;28;20060;-73
2022/10/06 14:57:22;;;;;;;6.15;1.67;;;;;;;18.40;35.91;101226.38;10384015;28;20057;-73
2022/10/06 15:02:24;;;;;;;7.25;1.55;;;;;;;18.33;35.23;101226.94;10391298;28;20049;-72
2022/10/06 15:12:46;;;;;;;6.70;1.80;;;;;;;18.30;35.27;101227.19;10378456;28;20049;-73
2022/10/06 15:17:48;;;;;;;9.85;1.92;;;;;;;18.30;36.22;101221.88;10373389;28;20068;-75
2022/10/06 15:22:49;;;;;;;10.75;1.83;;;;;;;18.23;36.74;101213.53;10379686;28;20522;-74
2022/10/06 15:33:12;;;;;;;8.27;1.90;;;;;;;18.26;37.23;101215.94;10388620;28;20490;-75
2022/10/06 15:38:13;;;;;;;4.18;1.52;;;;;;;18.19;37.60;101208.50;10378657;28;20063;-75
2022/10/06 15:43:53;;;;;;;7.55;1.50;;;;;;;18.14;37.91;101210.63;10387366;28;20046;-75
2022/10/06 15:48:40;;;;;;;5.53;1.60;;;;;;;18.07;38.83;101204.09;10378183;28;20048;-78
2022/10/06 15:53:45;;;;;;;8.27;1.70;;;;;;;18.07;38.49;101210.25;10382647;28;20053;-78
2022/10/06 15:58:47;;;;;;;11.30;1.80;;;;;;;17.98;39.17;101210.00;10373044;28;20797;-74
2022/10/06 16:03:49;;;;;;;10.18;2.10;;;;;;;17.70;39.30;101206.66;10383846;28;20064;-74
2022/10/06 16:08:51;;;;;;;5.35;1.58;;;;;;;17.47;39.30;101210.03;10380401;28;20421;-74
2022/10/06 16:13:53;;;;;;;9.98;1.70;;;;;;;17.24;40.90;101217.81;10388266;28;20042;-75
2022/10/06 16:18:55;;;;;;;7.00;1.80;;;;;;;17.02;42.34;101213.06;10384834;28;20049;-74
2022/10/06 16:23:57;;;;;;;8.50;1.85;;;;;;;16.72;42.72;101208.03;10388097;28;20049;-74
2022/10/06 16:28:59;;;;;;;10.13;1.85;;;;;;;16.38;44.06;101207.63;10387720;28;20085;-76
2022/10/06 16:34:03;;;;;;;6.72;1.60;;;;;;;16.10;45.15;101216.44;10388250;28;20057;-74
2022/10/06 16:39:20;;;;;;;5.55;1.55;;;;;;;15.78;45.94;101222.81;10387798;28;20064;-73
2022/10/06 16:44:22;;;;;;;6.10;1.60;;;;;;;15.45;46.03;101222.19;10387131;28;20511;-74
2022/10/06 16:49:26;;;;;;;6.85;1.63;;;;;;;15.13;46.99;101217.03;10387167;28;20049;-75
2022/10/06 16:54:27;;;;;;;8.15;1.80;;;;;;;14.87;48.49;101227.38;10386459;28;20064;-75
2022/10/06 16:59:29;;;;;;;6.45;1.58;;;;;;;14.63;49.62;101228.75;10386411;28;20065;-75
2022/10/06 17:04:31;;;;;;;7.10;1.70;;;;;;;14.39;49.89;101229.13;10384612;28;20049;-75
2022/10/06 17:09:33;;;;;;;11.38;2.42;;;;;;;14.19;50.53;101231.16;10384901;28;20050;-75
2022/10/06 17:14:35;;;;;;;8.50;2.00;;;;;;;13.94;51.69;101228.16;10385746;28;20588;-75
2022/10/06 17:19:36;;;;;;;11.18;2.00;;;;;;;13.73;51.98;101232.75;10383208;28;20075;-75
2022/10/06 17:24:38;;;;;;;9.25;2.17;;;;;;;13.51;52.18;101238.28;10380432;28;20042;-75
2022/10/06 17:29:40;;;;;;;8.57;2.35;;;;;;;13.34;52.83;101243.50;10384680;28;20060;-77
2022/10/06 17:34:41;;;;;;;8.30;2.10;;;;;;;13.17;53.68;101246.09;10379611;28;20049;-74
2022/10/06 17:39:43;;;;;;;9.55;1.80;;;;;;;13.05;54.08;101253.78;10377919;28;20060;-75
2022/10/06 17:44:47;;;;;;;8.98;2.55;;;;;;;12.92;54.17;101258.75;10379219;28;20143;-77
2022/10/06 17:49:49;;;;;;;10.52;2.20;;;;;;;12.71;54.59;101258.00;10379552;28;20056;-78
2022/10/06 17:54:53;;;;;;;6.07;1.92;;;;;;;12.50;55.66;101259.00;10378118;28;20052;-76
2022/10/06 17:59:57;;;;;;;8.90;2.13;;;;;;;12.40;55.71;101267.38;10378021;28;20303;-76
2022/10/06 18:04:59;;;;;;;8.00;2.28;;;;;;;12.30;56.05;101261.72;10382418;28;20073;-76
2022/10/06 18:15:21;;;;;;;11.27;2.25;;;;;;;12.09;56.51;101266.13;10384547;28;20531;-77
2022/10/06 18:20:28;;;;;;;9.45;2.30;;;;;;;12.02;56.55;101266.47;10384452;28;20501;-75
2022/10/06 18:25:30;;;;;;;13.02;2.22;;;;;;;11.89;56.99;101263.53;10378681;28;20061;-74
2022/10/06 18:30:32;;;;;;;11.45;2.40;;;;;;;11.74;57.21;101256.34;10384727;28;20065;-74
2022/10/06 18:35:34;;;;;;;10.70;2.42;;;;;;;11.62;57.31;101266.50;10381365;28;20052;-74
2022/10/06 18:41:01;;;;;;;9.93;2.92;;;;;;;11.40;58.12;101265.72;10373375;28;20138;-66
2022/10/06 18:51:25;;;;;;;14.18;2.80;;;;;;;11.12;58.54;101279.94;10381512;28;20050;-66
2022/10/06 18:56:30;;;;;;;14.00;2.60;;;;;;;11.07;59.04;101270.59;10379836;28;21007;-66
2022/10/06 19:01:31;;;;;;;17.15;2.83;;;;;;;11.04;59.32;101271.56;10383018;28;20057;-66
2022/10/06 19:06:34;;;;;;;8.77;2.70;;;;;;;10.99;59.42;101272.63;10378818;28;20057;-66
2022/10/06 19:17:12;;;;;;;12.70;3.13;;;;;;;10.69;59.61;101293.00;10381322;28;20049;-66
2022/10/06 19:22:15;;;;;;;10.88;2.85;;;;;;;10.54;59.84;101290.97;10383931;28;20386;-66
2022/10/06 19:27:25;;;;;;;10.50;2.72;;;;;;;10.38;60.30;101300.28;10388090;28;20497;-66
2022/10/06 19:32:31;;;;;;;11.03;2.60;;;;;;;10.38;60.69;101295.06;10388587;28;20060;-66
2022/10/06 19:37:33;;;;;;;7.80;2.42;;;;;;;10.34;60.68;101293.47;10390766;28;20072;-66
2022/10/06 19:42:47;;;;;;;12.60;3.65;;;;;;;10.20;60.79;101296.59;10390804;28;20197;-66
2022/10/06 19:47:50;;;;;;;10.50;2.65;;;;;;;9.95;61.50;101310.63;10390182;28;20145;-66
2022/10/06 19:52:52;;;;;;;13.45;2.90;;;;;;;9.88;61.75;101304.75;10390250;28;20049;-66
2022/10/06 19:57:53;;;;;;;12.68;3.58;;;;;;;9.88;61.73;101304.75;10390202;28;20081;-66
2022/10/06 20:02:55;;;;;;;9.00;2.30;;;;;;;9.90;61.85;101307.28;10388242;28;20053;-66
2022/10/06 20:07:57;;;;;;;13.05;3.20;;;;;;;9.88;61.71;101307.34;10389687;28;20065;-66
2022/10/06 20:12:59;;;;;;;10.98;2.92;;;;;;;9.68;62.05;101314.16;10388787;28;20065;-66
2022/10/06 20:18:03;;;;;;;9.07;2.45;;;;;;;9.62;62.00;101315.22;10390013;28;20060;-66
2022/10/06 20:23:05;;;;;;;12.75;2.85;;;;;;;9.64;62.29;101301.19;10388905;28;20054;-65
2022/10/06 20:28:08;;;;;;;13.98;2.55;;;;;;;9.60;62.34;101309.19;10390359;28;20136;-65
2022/10/06 20:33:10;;;;;;;11.50;3.00;;;;;;;9.54;62.32;101312.84;10386775;28;21819;-65
2022/10/06 20:38:13;;;;;;;12.98;2.75;;;;;;;9.37;62.47;101315.16;10385776;28;20143;-65
2022/10/06 20:43:15;;;;;;;12.15;3.78;;;;;;;9.28;62.72;101312.00;10385611;28;20513;-65
2022/10/06 20:48:17;;;;;;;10.82;3.30;;;;;;;9.04;62.72;101318.84;10383577;28;20879;-65
2022/10/06 20:53:18;;;;;;;14.68;2.70;;;;;;;8.97;63.06;101306.06;10384900;28;20524;-65
2022/10/06 20:58:20;;;;;;;10.07;2.45;;;;;;;9.04;62.98;101305.81;10385912;28;20198;-65
2022/10/06 21:03:22;;;;;;;10.60;2.60;;;;;;;9.07;63.23;101310.94;10383687;28;20427;-64
2022/10/06 21:08:23;;;;;;;8.65;2.88;;;;;;;9.04;62.89;101299.72;10385288;28;20057;-65
2022/10/06 21:13:27;;;;;;;9.45;2.53;;;;;;;8.94;63.19;101303.53;10385926;28;20064;-65
2022/10/06 21:18:30;;;;;;;14.23;2.95;;;;;;;8.90;63.18;101294.94;10377908;28;20052;-64
2022/10/06 21:23:36;;;;;;;14.65;2.92;;;;;;;8.50;63.44;101297.06;10382055;28;20057;-65
2022/10/06 21:28:38;;;;;;;10.98;2.60;;;;;;;8.55;63.76;101303.84;10384960;28;20050;-65
2022/10/06 21:33:41;;;;;;;11.20;2.42;;;;;;;8.66;63.59;101301.78;10383444;28;20085;-64
2022/10/06 21:38:46;;;;;;;10.82;2.40;;;;;;;8.58;63.66;101295.09;10384106;28;20052;-65
2022/10/06 21:44:15;;;;;;;14.32;2.53;;;;;;;8.51;63.65;101290.94;10383844;28;20049;-65
2022/10/06 21:49:19;;;;;;;11.13;2.30;;;;;;;8.54;63.75;101293.47;10382105;28;20137;-65
2022/10/06 21:54:22;;;;;;;11.93;3.05;;;;;;;8.50;63.42;101290.13;10381255;28;20087;-65
2022/10/06 21:59:24;;;;;;;8.90;2.67;;;;;;;8.45;63.54;101285.91;10382100;28;20064;-65
2022/10/06 22:04:26;;;;;;;11.65;3.35;;;;;;;8.46;63.49;101282.41;10364804;28;20143;-65
2022/10/06 22:09:27;;;;;;;10.55;2.80;;;;;;;8.41;63.48;101279.06;10383083;28;20115;-65
2022/10/06 22:14:29;;;;;;;17.00;3.08;;;;;;;8.39;63.55;101265.22;10382003;28;20079;-65
2022/10/06 22:19:31;;;;;;;10.55;2.90;;;;;;;8.33;63.53;101262.81;10382602;28;20061;-64
2022/10/06 22:24:32;;;;;;;13.52;3.33;;;;;;;8.03;63.25;101280.16;10384187;28;20053;-64
2022/10/06 22:29:34;;;;;;;15.68;3.10;;;;;;;7.62;63.77;101270.88;10381382;28;20069;-65
2022/10/06 22:34:36;;;;;;;11.95;2.88;;;;;;;7.57;64.20;101272.72;10382028;28;20462;-65
2022/10/06 22:39:38;;;;;;;12.23;2.85;;;;;;;7.61;64.32;101274.34;10382166;28;20061;-64
2022/10/06 22:44:40;;;;;;;8.55;2.63;;;;;;;7.69;64.34;101268.97;10381950;28;20075;-64
2022/10/06 22:49:42;;;;;;;12.32;2.92;;;;;;;7.79;64.32;101271.25;10378575;28;20559;-65
2022/10/06 22:54:43;;;;;;;8.40;2.72;;;;;;;7.76;64.09;101262.69;10380374;28;20057;-65
2022/10/06 22:59:45;;;;;;;14.85;2.83;;;;;;;7.75;64.21;101264.41;10375975;28;20045;-65
2022/10/06 23:04:47;;;;;;;10.82;2.67;;;;;;;7.56;64.06;101255.41;10384506;28;21873;-64
2022/10/06 23:09:49;;;;;;;12.38;2.75;;;;;;;7.52;64.23;101248.56;10382069;28;20053;-64
2022/10/06 23:14:50;;;;;;;12.88;2.67;;;;;;;7.55;64.33;101251.09;10388408;28;20174;-65
2022/10/06 23:19:52;;;;;;;12.98;2.72;;;;;;;7.57;64.21;101241.47;10387502;28;20046;-64
2022/10/06 23:24:54;;;;;;;7.28;2.50;;;;;;;7.52;64.25;101240.75;10373434;28;20052;-65
2022/10/06 23:29:55;;;;;;;12.18;3.10;;;;;;;7.43;64.02;101237.53;10387315;28;20068;-64
2022/10/06 23:34:57;;;;;;;10.85;3.00;;;;;;;7.02;64.19;101236.00;10386605;28;20535;-64
2022/10/06 23:39:59;;;;;;;11.80;2.50;;;;;;;7.05;64.67;101234.16;10386826;28;20056;-65
2022/10/06 23:45:01;;;;;;;9.20;2.67;;;;;;;6.99;64.06;101223.06;10387785;28;20100;-64
2022/10/06 23:50:03;;;;;;;12.02;3.03;;;;;;;6.96;64.60;101216.19;10386767;28;20092;-65
2022/10/06 23:55:05;;;;;;;9.50;2.40;;;;;;;7.02;64.68;101226.44;10386716;28;20064;-64
